createdAt,value
2023-04-22T00:00:22.974Z,3.30
2023-04-22T00:02:50.315Z,3.47
2023-04-22T00:05:20.269Z,3.35
2023-04-22T00:07:47.957Z,3.20
2023-04-22T00:10:15.181Z,3.25
2023-04-22T00:12:43.699Z,3.40
2023-04-22T00:15:11.472Z,3.03
2023-04-22T00:17:38.750Z,3.22
2023-04-22T00:20:07.704Z,3.10
2023-04-22T00:22:34.976Z,3.13
2023-04-22T00:25:02.194Z,3.20
2023-04-22T00:27:29.431Z,3.50
2023-04-22T00:29:57.932Z,3.38
2023-04-22T00:32:25.140Z,3.03
2023-04-22T00:34:52.379Z,3.13
2023-04-22T00:37:19.756Z,3.50
2023-04-22T00:39:46.971Z,3.40
2023-04-22T00:42:14.408Z,3.22
2023-04-22T00:44:41.682Z,3.08
2023-04-22T00:47:10.760Z,3.17
2023-04-22T00:49:38.234Z,3.40
2023-04-22T00:52:05.667Z,3.47
2023-04-22T00:54:32.909Z,3.50
2023-04-22T00:57:00.150Z,3.45
2023-04-22T00:59:27.352Z,3.38
2023-04-22T01:01:54.597Z,3.60
2023-04-22T01:04:24.034Z,3.35
2023-04-22T01:06:51.900Z,3.35
2023-04-22T01:09:19.633Z,3.47
2023-04-22T01:11:46.950Z,3.30
2023-04-22T01:14:14.288Z,3.60
2023-04-22T01:16:43.466Z,3.10
2023-04-22T01:19:11.433Z,3.50
2023-04-22T01:21:40.617Z,3.50
2023-04-22T01:24:09.433Z,3.78
2023-04-22T01:26:36.781Z,3.13
2023-04-22T01:29:04.864Z,3.17
2023-04-22T01:31:32.094Z,3.10
2023-04-22T01:33:59.338Z,3.22
2023-04-22T01:36:26.679Z,3.20
2023-04-22T01:38:53.870Z,3.10
2023-04-22T01:41:22.541Z,3.55
2023-04-22T01:43:49.773Z,2.92
2023-04-22T01:46:17.637Z,3.47
2023-04-22T01:48:50.192Z,3.15
2023-04-22T01:51:17.533Z,3.47
2023-04-22T01:53:44.920Z,3.28
2023-04-22T01:56:12.197Z,3.70
2023-04-22T01:58:41.068Z,2.97
2023-04-22T02:01:09.295Z,3.10
2023-04-22T02:03:36.610Z,3.40
2023-04-22T02:06:03.897Z,3.40
2023-04-22T02:08:31.191Z,3.10
2023-04-22T02:11:00.341Z,3.28
2023-04-22T02:13:27.565Z,3.38
2023-04-22T02:15:56.195Z,3.40
2023-04-22T02:18:23.436Z,3.15
2023-04-22T02:20:50.622Z,3.40
2023-04-22T02:23:17.833Z,3.50
2023-04-22T02:25:48.985Z,3.03
2023-04-22T02:28:16.346Z,3.38
2023-04-22T02:30:43.549Z,3.22
2023-04-22T02:33:12.109Z,3.10
2023-04-22T02:35:39.337Z,3.20
2023-04-22T02:38:06.552Z,3.22
2023-04-22T02:40:33.758Z,3.53
2023-04-22T02:43:00.990Z,3.42
2023-04-22T02:45:28.178Z,3.00
2023-04-22T02:47:55.505Z,3.63
2023-04-22T02:50:24.077Z,3.63
2023-04-22T02:52:51.888Z,3.40
2023-04-22T02:55:19.207Z,2.92
2023-04-22T02:57:46.558Z,3.30
2023-04-22T03:00:14.297Z,3.08
2023-04-22T03:02:41.743Z,3.78
2023-04-22T03:05:10.017Z,3.47
2023-04-22T03:07:38.557Z,3.70
2023-04-22T03:10:06.429Z,3.30
2023-04-22T03:12:33.679Z,3.08
2023-04-22T03:15:00.899Z,3.42
2023-04-22T03:17:28.176Z,3.50
2023-04-22T03:19:55.760Z,3.10
2023-04-22T03:22:22.977Z,3.40
2023-04-22T03:24:51.468Z,3.30
2023-04-22T03:27:18.715Z,3.20
2023-04-22T03:29:46.337Z,3.22
2023-04-22T03:32:13.584Z,3.40
2023-04-22T03:34:40.874Z,3.60
2023-04-22T03:37:08.124Z,3.38
2023-04-22T03:39:35.371Z,3.42
2023-04-22T03:42:03.918Z,3.30
2023-04-22T03:44:31.091Z,3.20
2023-04-22T03:46:58.322Z,3.47
2023-04-22T03:49:26.148Z,3.70
2023-04-22T03:51:53.359Z,3.40
2023-04-22T03:54:20.580Z,3.53
2023-04-22T03:56:47.843Z,3.17
2023-04-22T03:59:16.320Z,3.75
2023-04-22T04:01:43.539Z,3.40
2023-04-22T04:04:10.924Z,3.72
2023-04-22T04:06:38.284Z,3.60
2023-04-22T04:09:05.581Z,3.30
2023-04-22T04:11:32.771Z,3.28
2023-04-22T04:14:00.004Z,3.58
2023-04-22T04:16:28.698Z,3.30
2023-04-22T04:18:56.053Z,3.25
2023-04-22T04:21:23.259Z,3.60
2023-04-22T04:23:50.581Z,3.33
2023-04-22T04:26:18.038Z,3.60
2023-04-22T04:28:45.462Z,3.33
2023-04-22T04:31:12.703Z,3.55
2023-04-22T04:33:41.263Z,3.60
2023-04-22T04:36:10.147Z,3.40
2023-04-22T04:38:37.780Z,3.40
2023-04-22T04:41:05.069Z,2.85
2023-04-22T04:43:32.315Z,3.38
2023-04-22T04:45:59.627Z,3.33
2023-04-22T04:48:27.070Z,3.33
2023-04-22T04:50:56.529Z,3.30
2023-04-22T04:53:23.779Z,3.15
2023-04-22T04:55:51.035Z,3.58
2023-04-22T04:58:18.266Z,3.17
2023-04-22T05:00:45.475Z,3.10
2023-04-22T05:03:12.819Z,3.08
2023-04-22T05:05:40.148Z,3.53
2023-04-22T05:08:08.667Z,3.10
2023-04-22T05:10:35.909Z,3.40
2023-04-22T05:13:04.234Z,3.17
2023-04-22T05:15:31.755Z,3.83
2023-04-22T05:17:59.020Z,3.97
2023-04-22T05:20:26.344Z,3.45
2023-04-22T05:22:53.610Z,3.33
2023-04-22T05:25:22.175Z,3.28
2023-04-22T05:27:49.385Z,3.92
2023-04-22T05:30:16.573Z,3.75
2023-04-22T05:32:43.894Z,3.10
2023-04-22T05:35:11.331Z,3.13
2023-04-22T05:37:38.683Z,3.40
2023-04-22T05:40:06.691Z,2.90
2023-04-22T05:42:35.285Z,3.28
2023-04-22T05:45:02.493Z,3.83
2023-04-22T05:47:30.501Z,3.42
2023-04-22T05:49:57.773Z,3.22
2023-04-22T05:52:25.051Z,3.10
2023-04-22T05:54:52.289Z,3.08
2023-04-22T05:57:19.583Z,3.55
2023-04-22T05:59:48.116Z,3.50
2023-04-22T06:02:16.117Z,3.53
2023-04-22T06:04:43.775Z,3.10
2023-04-22T06:07:11.381Z,3.20
2023-04-22T06:09:38.951Z,3.35
2023-04-22T06:12:06.504Z,3.25
2023-04-22T06:14:33.741Z,3.22
2023-04-22T06:17:02.271Z,3.28
2023-04-22T06:19:29.513Z,3.17
2023-04-22T06:21:56.723Z,3.10
2023-04-22T06:24:23.970Z,2.90
2023-04-22T06:26:51.388Z,3.47
2023-04-22T06:29:18.586Z,3.08
2023-04-22T06:31:46.020Z,3.20
2023-04-22T06:34:14.661Z,3.10
2023-04-22T06:36:41.921Z,2.90
2023-04-22T06:39:10.905Z,3.20
2023-04-22T06:41:40.153Z,3.42
2023-04-22T06:44:08.692Z,3.05
2023-04-22T06:46:36.002Z,3.15
2023-04-22T06:49:03.276Z,3.05
2023-04-22T06:51:32.549Z,3.30
2023-04-22T06:53:59.766Z,3.23
2023-04-22T06:56:27.101Z,2.85
2023-04-22T06:58:54.307Z,3.03
2023-04-22T07:01:21.500Z,2.83
2023-04-22T07:03:48.821Z,3.33
2023-04-22T07:06:16.141Z,2.90
2023-04-22T07:08:44.679Z,2.72
2023-04-22T07:11:13.973Z,2.95
2023-04-22T07:13:41.703Z,2.78
2023-04-22T07:16:09.031Z,2.90
2023-04-22T07:18:36.464Z,2.90
2023-04-22T07:21:03.752Z,2.75
2023-04-22T07:23:30.995Z,2.88
2023-04-22T07:25:59.566Z,2.72
2023-04-22T07:28:26.775Z,3.00
2023-04-22T07:30:54.756Z,2.92
2023-04-22T07:33:22.039Z,2.95
2023-04-22T07:35:49.267Z,3.10
2023-04-22T07:38:16.477Z,3.30
2023-04-22T07:40:43.789Z,3.33
2023-04-22T07:43:12.342Z,3.20
2023-04-22T07:45:39.572Z,2.95
2023-04-22T07:48:06.804Z,3.28
2023-04-22T07:50:33.996Z,3.03
2023-04-22T07:53:01.376Z,3.10
2023-04-22T07:55:28.587Z,3.08
2023-04-22T07:57:56.026Z,3.10
2023-04-22T08:00:24.598Z,3.25
2023-04-22T08:02:51.900Z,3.05
2023-04-22T08:05:19.649Z,3.15
2023-04-22T08:07:46.972Z,3.00
2023-04-22T08:10:14.149Z,2.80
2023-04-22T08:12:41.334Z,3.00
2023-04-22T08:15:08.847Z,2.70
2023-04-22T08:17:37.466Z,3.20
2023-04-22T08:20:07.969Z,3.13
2023-04-22T08:22:35.443Z,3.00
2023-04-22T08:25:02.759Z,2.70
2023-04-22T08:27:30.701Z,2.90
2023-04-22T08:29:57.872Z,3.13
2023-04-22T08:32:26.399Z,2.83
2023-04-22T08:35:03.813Z,2.85
2023-04-22T08:37:31.803Z,2.90
2023-04-22T08:39:58.982Z,2.80
2023-04-22T08:42:26.269Z,2.75
2023-04-22T08:44:53.467Z,2.60
2023-04-22T08:47:21.173Z,3.00
2023-04-22T08:49:48.427Z,2.55
2023-04-22T08:52:16.920Z,2.90
2023-04-22T08:57:04.088Z,2.75
2023-04-22T08:59:31.577Z,2.65
2023-04-22T09:01:59.140Z,2.85
2023-04-22T09:04:26.491Z,2.70
2023-04-22T09:06:53.729Z,2.60
2023-04-22T09:09:22.446Z,2.85
2023-04-22T09:11:49.690Z,2.67
2023-04-22T09:14:17.016Z,2.78
2023-04-22T09:16:47.816Z,2.78
2023-04-22T09:19:15.224Z,2.85
2023-04-22T09:21:42.561Z,2.65
2023-04-22T09:24:09.977Z,3.10
2023-04-22T09:26:40.728Z,2.70
2023-04-22T09:29:09.407Z,2.78
2023-04-22T09:31:37.821Z,2.63
2023-04-22T09:34:05.153Z,2.60
2023-04-22T09:36:33.948Z,2.78
2023-04-22T09:39:03.902Z,2.63
2023-04-22T09:41:31.298Z,2.97
2023-04-22T09:44:00.430Z,2.63
2023-04-22T09:46:28.692Z,2.70
2023-04-22T09:48:56.125Z,2.35
2023-04-22T09:51:23.365Z,2.60
2023-04-22T09:53:58.030Z,2.60
2023-04-22T09:56:40.226Z,2.70
2023-04-22T09:59:08.799Z,2.47
2023-04-22T10:01:36.535Z,2.40
2023-04-22T10:04:04.244Z,2.55
2023-04-22T10:06:32.367Z,2.40
2023-04-22T10:08:59.604Z,2.70
2023-04-22T10:11:26.799Z,2.33
2023-04-22T10:13:53.985Z,2.50
2023-04-22T10:16:22.734Z,2.50
2023-04-22T10:18:49.960Z,2.30
2023-04-22T10:21:17.739Z,2.42
2023-04-22T10:23:46.451Z,2.55
2023-04-22T10:26:13.657Z,2.67
2023-04-22T10:28:42.952Z,2.75
2023-04-22T10:31:20.580Z,2.70
2023-04-22T10:33:49.174Z,2.47
2023-04-22T10:36:17.265Z,2.63
2023-04-22T10:38:59.436Z,2.15
2023-04-22T10:41:26.945Z,2.20
2023-04-22T10:43:58.316Z,2.70
2023-04-22T10:46:45.319Z,2.35
2023-04-22T10:49:15.447Z,2.50
2023-04-22T10:51:42.810Z,2.22
2023-04-22T10:54:15.821Z,2.38
2023-04-22T10:56:58.554Z,2.40
2023-04-22T10:59:25.780Z,2.17
2023-04-22T11:01:53.122Z,2.20
2023-04-22T11:04:23.080Z,2.17
2023-04-22T11:07:05.637Z,2.45
2023-04-22T11:09:32.847Z,2.40
2023-04-22T11:12:14.961Z,2.35
2023-04-22T11:14:42.988Z,2.30
2023-04-22T11:17:10.162Z,2.60
2023-04-22T11:19:38.972Z,2.45
2023-04-22T11:22:06.353Z,2.08
2023-04-22T11:24:33.557Z,2.55
2023-04-22T11:27:01.424Z,2.20
2023-04-22T11:29:28.617Z,2.50
2023-04-22T11:31:56.117Z,2.40
2023-04-22T11:34:23.318Z,2.28
2023-04-22T11:36:52.537Z,2.33
2023-04-22T11:39:20.143Z,2.30
2023-04-22T11:41:47.336Z,2.42
2023-04-22T11:44:14.719Z,2.47
2023-04-22T11:46:44.579Z,2.28
2023-04-22T11:49:12.491Z,2.33
2023-04-22T11:51:53.243Z,2.30
2023-04-22T11:54:29.704Z,2.30
2023-04-22T11:56:56.904Z,2.28
2023-04-22T11:59:25.057Z,2.30
2023-04-22T12:01:52.768Z,2.30
2023-04-22T12:04:21.751Z,2.45
2023-04-22T12:06:49.826Z,2.38
2023-04-22T12:09:18.328Z,2.58
2023-04-22T12:11:45.697Z,2.40
2023-04-22T12:14:12.926Z,2.40
2023-04-22T12:16:40.919Z,2.35
2023-04-22T12:19:08.144Z,2.45
2023-04-22T12:21:35.339Z,2.33
2023-04-22T12:24:04.197Z,2.20
2023-04-22T12:26:32.778Z,2.20
2023-04-22T12:29:00.231Z,2.35
2023-04-22T12:31:27.753Z,2.35
2023-04-22T12:33:55.454Z,2.08
2023-04-22T12:36:23.240Z,2.30
2023-04-22T12:38:51.032Z,2.42
2023-04-22T12:41:18.219Z,2.35
2023-04-22T12:43:46.778Z,2.30
2023-04-22T12:46:13.980Z,2.33
2023-04-22T12:48:42.590Z,2.33
2023-04-22T12:51:09.835Z,2.30
2023-04-22T12:53:37.060Z,2.50
2023-04-22T12:56:04.306Z,2.45
2023-04-22T12:58:31.534Z,2.30
2023-04-22T13:01:00.028Z,2.50
2023-04-22T13:03:27.535Z,2.13
2023-04-22T13:05:55.410Z,2.10
2023-04-22T13:08:22.662Z,2.00
2023-04-22T13:10:49.876Z,2.33
2023-04-22T13:13:18.853Z,2.30
2023-04-22T13:15:46.831Z,2.13
2023-04-22T13:18:15.892Z,2.30
2023-04-22T13:20:43.118Z,2.22
2023-04-22T13:23:10.599Z,2.08
2023-04-22T13:25:37.817Z,2.17
2023-04-22T13:28:05.013Z,2.20
2023-04-22T13:30:32.200Z,2.20
2023-04-22T13:32:59.455Z,2.40
2023-04-22T13:35:27.973Z,2.05
2023-04-22T13:37:55.211Z,2.40
2023-04-22T13:40:22.677Z,2.05
2023-04-22T13:42:50.006Z,2.13
2023-04-22T13:45:17.262Z,2.10
2023-04-22T13:47:44.544Z,2.28
2023-04-22T13:50:12.038Z,2.03
2023-04-22T13:52:40.625Z,2.08
2023-04-22T13:55:08.474Z,2.00
2023-04-22T13:57:35.769Z,2.15
2023-04-22T14:00:03.830Z,2.03
2023-04-22T14:02:31.111Z,2.17
2023-04-22T14:04:59.064Z,1.95
2023-04-22T14:07:26.312Z,1.92
2023-04-22T14:09:55.175Z,2.10
2023-04-22T14:12:22.428Z,2.10
2023-04-22T14:14:49.606Z,2.10
2023-04-22T14:17:16.801Z,2.28
2023-04-22T14:19:44.840Z,1.95
2023-04-22T14:22:12.059Z,2.13
2023-04-22T14:24:39.262Z,2.08
2023-04-22T14:27:07.785Z,1.90
2023-04-22T14:29:35.057Z,2.05
2023-04-22T14:32:02.254Z,1.90
2023-04-22T14:34:29.482Z,2.15
2023-04-22T14:36:56.698Z,2.22
2023-04-22T14:39:23.913Z,1.90
2023-04-22T14:41:51.113Z,1.88
2023-04-22T14:44:19.687Z,2.10
2023-04-22T14:46:46.994Z,1.90
2023-04-22T14:49:14.228Z,1.90
2023-04-22T14:51:41.452Z,1.80
2023-04-22T14:54:08.688Z,1.90
2023-04-22T14:56:36.035Z,1.90
2023-04-22T14:59:03.246Z,2.25
2023-04-22T15:01:31.766Z,1.80
2023-04-22T15:03:59.093Z,2.03
2023-04-22T15:06:27.485Z,1.98
2023-04-22T15:08:55.793Z,1.92
2023-04-22T15:11:22.990Z,1.63
2023-04-22T15:13:50.186Z,1.90
2023-04-22T15:16:17.436Z,2.08
2023-04-22T15:18:46.022Z,1.90
2023-04-22T15:21:13.242Z,1.83
2023-04-22T15:23:40.610Z,2.03
2023-04-22T15:26:07.829Z,2.03
2023-04-22T15:28:35.630Z,1.73
2023-04-22T15:31:03.188Z,1.90
2023-04-22T15:33:30.482Z,1.90
2023-04-22T15:35:58.979Z,1.98
2023-04-22T15:38:26.145Z,1.95
2023-04-22T15:40:53.339Z,2.00
2023-04-22T15:43:20.535Z,1.83
2023-04-22T15:45:47.744Z,1.90
2023-04-22T15:48:14.933Z,1.90
2023-04-22T15:50:42.182Z,1.63
2023-04-22T15:53:10.721Z,1.80
2023-04-22T15:55:37.949Z,1.98
2023-04-22T15:58:05.141Z,1.92
2023-04-22T16:00:32.360Z,1.90
2023-04-22T16:02:59.696Z,1.63
2023-04-22T16:05:28.525Z,2.13
2023-04-22T16:07:56.239Z,2.00
2023-04-22T16:10:26.206Z,1.83
2023-04-22T16:15:22.519Z,1.83
2023-04-22T16:17:49.781Z,1.87
2023-04-22T16:20:17.017Z,1.90
2023-04-22T16:22:44.218Z,1.92
2023-04-22T16:25:11.467Z,1.88
2023-04-22T16:27:39.988Z,1.70
2023-04-22T16:30:07.806Z,1.70
2023-04-22T16:32:35.093Z,2.00
2023-04-22T16:35:02.435Z,1.70
2023-04-22T16:37:29.682Z,1.77
2023-04-22T16:39:56.900Z,2.17
2023-04-22T16:42:24.092Z,1.75
2023-04-22T16:44:52.631Z,2.08
2023-04-22T16:47:19.842Z,2.17
2023-04-22T16:49:47.146Z,1.90
2023-04-22T16:52:14.374Z,1.95
2023-04-22T16:54:42.381Z,2.13
2023-04-22T16:57:10.398Z,2.08
2023-04-22T16:59:37.953Z,1.90
2023-04-22T17:02:06.672Z,2.10
2023-04-22T17:04:34.044Z,2.10
2023-04-22T17:07:01.338Z,2.00
2023-04-22T17:09:28.579Z,1.90
2023-04-22T17:11:56.227Z,1.95
2023-04-22T17:14:23.425Z,2.00
2023-04-22T17:16:50.699Z,2.05
2023-04-22T17:19:19.224Z,1.70
2023-04-22T17:21:46.436Z,2.03
2023-04-22T17:24:13.725Z,1.95
2023-04-22T17:26:40.930Z,1.80
2023-04-22T17:29:08.127Z,2.20
2023-04-22T17:31:35.378Z,1.90
2023-04-22T17:34:03.323Z,2.10
2023-04-22T17:36:32.000Z,1.90
2023-04-22T17:38:59.212Z,1.67
2023-04-22T17:41:26.430Z,1.88
2023-04-22T17:43:53.687Z,2.15
2023-04-22T17:46:20.959Z,2.20
2023-04-22T17:48:48.925Z,1.80
2023-04-22T17:51:16.131Z,1.90
2023-04-22T17:53:44.634Z,2.00
2023-04-22T17:56:11.821Z,1.83
2023-04-22T17:58:39.118Z,2.40
2023-04-22T18:01:07.251Z,1.77
2023-04-22T18:03:34.717Z,2.50
2023-04-22T18:06:02.172Z,2.00
2023-04-22T18:08:29.375Z,2.20
2023-04-22T18:10:57.981Z,2.10
2023-04-22T18:13:25.183Z,2.05
2023-04-22T18:15:52.420Z,2.20
2023-04-22T18:18:19.640Z,2.25
2023-04-22T18:20:46.869Z,2.00
2023-04-22T18:23:14.088Z,2.03
2023-04-22T18:25:41.307Z,1.80
2023-04-22T18:28:09.842Z,1.88
2023-04-22T18:30:37.098Z,1.92
2023-04-22T18:33:05.095Z,1.95
2023-04-22T18:35:32.820Z,2.10
2023-04-22T18:38:00.064Z,2.20
2023-04-22T18:40:27.349Z,1.85
2023-04-22T18:42:54.566Z,2.05
2023-04-22T18:45:23.666Z,1.80
2023-04-22T18:47:51.302Z,2.00
2023-04-22T18:50:18.708Z,2.30
2023-04-22T18:52:45.958Z,2.00
2023-04-22T18:55:13.183Z,2.00
2023-04-22T18:57:41.407Z,2.00
2023-04-22T19:00:18.649Z,2.00
2023-04-22T19:02:47.329Z,1.92
2023-04-22T19:05:14.753Z,2.00
2023-04-22T19:07:44.383Z,2.28
2023-04-22T19:10:12.462Z,2.38
2023-04-22T19:12:39.734Z,2.30
2023-04-22T19:15:07.751Z,2.25
2023-04-22T19:17:35.493Z,2.20
2023-04-22T19:20:05.126Z,2.20
2023-04-22T19:22:32.389Z,2.00
2023-04-22T19:24:59.644Z,2.40
2023-04-22T19:27:27.005Z,2.10
2023-04-22T19:29:54.421Z,2.10
2023-04-22T19:32:21.652Z,1.88
2023-04-22T19:34:49.847Z,1.92
2023-04-22T19:37:18.490Z,2.30
2023-04-22T19:39:45.898Z,1.98
2023-04-22T19:42:13.139Z,2.20
2023-04-22T19:44:42.712Z,2.17
2023-04-22T19:47:10.447Z,1.92
2023-04-22T19:49:38.692Z,2.20
2023-04-22T19:52:08.961Z,2.10
2023-04-22T19:54:37.546Z,2.05
2023-04-22T19:57:06.487Z,2.38
2023-04-22T19:59:34.372Z,2.10
2023-04-22T20:02:01.895Z,2.28
2023-04-22T20:04:29.450Z,2.00
2023-04-22T20:06:57.023Z,2.03
2023-04-22T20:09:24.231Z,2.10
2023-04-22T20:11:53.447Z,2.10
2023-04-22T20:14:20.677Z,1.87
2023-04-22T20:16:49.706Z,2.10
2023-04-22T20:19:17.145Z,2.00
2023-04-22T20:21:44.434Z,2.00
2023-04-22T20:24:18.871Z,2.00
2023-04-22T20:26:46.536Z,2.10
2023-04-22T20:29:15.121Z,2.08
2023-04-22T20:31:42.671Z,2.10
2023-04-22T20:34:10.184Z,2.05
2023-04-22T20:36:38.200Z,2.05
2023-04-22T20:39:05.989Z,2.17
2023-04-22T20:41:34.400Z,2.28
2023-04-22T20:44:01.667Z,2.10
2023-04-22T20:46:30.293Z,2.25
2023-04-22T20:48:57.543Z,2.17
2023-04-22T20:51:24.870Z,2.25
2023-04-22T20:53:53.187Z,2.15
2023-04-22T20:56:21.306Z,2.33
2023-04-22T20:58:48.934Z,2.30
2023-04-22T21:01:16.341Z,1.90
2023-04-22T21:03:46.334Z,2.38
2023-04-22T21:08:40.940Z,2.10
2023-04-22T21:11:08.402Z,2.33
2023-04-22T21:13:36.028Z,1.98
2023-04-22T21:16:03.777Z,2.25
2023-04-22T21:18:32.347Z,2.30
2023-04-22T21:21:01.975Z,2.33
2023-04-22T21:23:29.292Z,2.30
2023-04-22T21:25:56.605Z,2.20
2023-04-22T21:28:24.006Z,2.28
2023-04-22T21:30:51.420Z,2.45
2023-04-22T21:33:18.623Z,2.15
2023-04-22T21:35:45.862Z,2.13
2023-04-22T21:38:16.090Z,2.10
2023-04-22T21:40:43.320Z,2.45
2023-04-22T21:43:10.611Z,2.10
2023-04-22T21:45:37.833Z,2.08
2023-04-22T21:48:05.221Z,2.10
2023-04-22T21:50:32.455Z,2.10
2023-04-22T21:53:00.066Z,2.13
2023-04-22T21:55:28.604Z,2.30
2023-04-22T21:57:55.839Z,2.08
2023-04-22T22:00:24.865Z,2.30
2023-04-22T22:02:53.043Z,2.47
2023-04-22T22:05:20.579Z,2.30
2023-04-22T22:07:47.786Z,2.33
2023-04-22T22:10:15.560Z,2.17
2023-04-22T22:12:44.229Z,2.10
2023-04-22T22:15:12.266Z,2.35
2023-04-22T22:17:40.051Z,2.42
2023-04-22T22:20:10.893Z,2.30
2023-04-22T22:22:38.139Z,2.20
2023-04-22T22:25:05.896Z,2.05
2023-04-22T22:27:33.146Z,2.13
2023-04-22T22:30:01.757Z,2.13
2023-04-22T22:32:29.151Z,2.20
2023-04-22T22:34:56.501Z,2.25
2023-04-22T22:37:23.708Z,2.45
2023-04-22T22:39:50.915Z,2.15
2023-04-22T22:42:18.116Z,2.00
2023-04-22T22:44:45.535Z,2.20
2023-04-22T22:47:14.101Z,2.10
2023-04-22T22:49:42.707Z,2.10
2023-04-22T22:52:09.927Z,2.40
2023-04-22T22:54:37.274Z,2.20
2023-04-22T22:57:05.425Z,2.22
2023-04-22T22:59:32.650Z,2.38
2023-04-22T23:02:00.609Z,2.22
2023-04-22T23:04:29.305Z,2.28
2023-04-22T23:06:56.741Z,2.40
2023-04-22T23:09:23.963Z,2.50
2023-04-22T23:11:51.848Z,2.38
2023-04-22T23:14:19.381Z,2.13
2023-04-22T23:16:46.805Z,2.08
2023-04-22T23:19:14.366Z,2.20
2023-04-22T23:21:42.925Z,2.10
2023-04-22T23:24:10.338Z,2.63
2023-04-22T23:26:37.735Z,2.35
2023-04-22T23:29:05.035Z,2.10
2023-04-22T23:31:32.634Z,2.70
2023-04-22T23:34:02.411Z,2.00
2023-04-22T23:36:30.900Z,2.28
2023-04-22T23:38:59.438Z,2.20
2023-04-22T23:41:26.631Z,2.40
2023-04-22T23:43:53.852Z,2.20
2023-04-22T23:46:21.079Z,2.28
2023-04-22T23:48:48.307Z,2.47
2023-04-22T23:51:16.197Z,2.60
2023-04-22T23:53:43.443Z,2.10
2023-04-22T23:56:12.829Z,2.40
2023-04-22T23:58:40.195Z,2.40
